Time;durP1;ratioP1;P1;durP2;ratioP2;P2;SDS_P1;SDS_P2;PMS_P1;PMS_P2;Temp;Humidity;BMP_temperature;BMP_pressure;BME280_temperature;BME280_humidity;BME280_pressure;Samples;Min_cycle;Max_cycle;Signal;HPM_P1;HPM_P2
2022/11/11 00:00:23;;;;;;;10.75;6.63;;;;;;;8.27;100.00;102692.63;5130144;28;20403;-83
2022/11/11 00:02:48;;;;;;;13.02;6.60;;;;;;;8.33;100.00;102702.00;5095920;28;20118;-83
2022/11/11 00:05:15;;;;;;;11.77;6.67;;;;;;;8.36;100.00;102696.28;5129978;28;20092;-83
2022/11/11 00:07:40;;;;;;;13.07;6.75;;;;;;;8.40;100.00;102709.31;5130018;28;20088;-83
2022/11/11 00:10:09;;;;;;;14.93;7.63;;;;;;;8.47;100.00;102700.63;5112769;28;20048;-82
2022/11/11 00:12:35;;;;;;;13.65;7.65;;;;;;;8.46;100.00;102705.19;5113073;28;20376;-83
2022/11/11 00:15:03;;;;;;;16.27;8.05;;;;;;;8.48;100.00;102705.88;5130753;28;20035;-83
2022/11/11 00:25:43;;;;;;;15.15;8.38;;;;;;;8.59;100.00;102688.53;5132257;27;20090;-83
2022/11/11 00:28:10;;;;;;;18.60;9.47;;;;;;;8.58;100.00;102698.50;5117793;27;20394;-83
2022/11/11 00:30:35;;;;;;;14.63;8.45;;;;;;;8.61;100.00;102697.34;5116400;28;20471;-83
2022/11/11 00:33:01;;;;;;;16.40;8.67;;;;;;;8.61;100.00;102705.47;5116947;28;20070;-83
2022/11/11 00:40:58;;;;;;;16.23;8.80;;;;;;;8.68;100.00;102702.97;5131382;27;20121;-83
2022/11/11 00:43:23;;;;;;;15.88;9.55;;;;;;;8.71;100.00;102708.94;5116255;28;20479;-83
2022/11/11 00:45:49;;;;;;;18.73;8.93;;;;;;;8.70;100.00;102720.75;5133366;27;20039;-83
2022/11/11 00:50:58;;;;;;;16.98;9.70;;;;;;;8.73;100.00;102715.03;5118051;28;20054;-83
2022/11/11 00:53:26;;;;;;;19.30;9.23;;;;;;;8.75;100.00;102707.63;5116298;28;20483;-83
2022/11/11 00:55:53;;;;;;;21.08;10.32;;;;;;;8.78;100.00;102715.41;5116209;28;20035;-83
2022/11/11 00:58:18;;;;;;;18.10;9.30;;;;;;;8.77;100.00;102726.41;5116480;28;20046;-83
2022/11/11 01:00:48;;;;;;;18.87;10.27;;;;;;;8.77;100.00;102723.69;5116291;28;20039;-83
2022/11/11 01:03:15;;;;;;;18.38;9.90;;;;;;;8.82;100.00;102721.34;5100424;28;20067;-83
2022/11/11 01:05:40;;;;;;;19.00;9.93;;;;;;;8.80;100.00;102733.34;5116111;28;20047;-82
2022/11/11 01:08:08;;;;;;;18.40;9.60;;;;;;;8.80;100.00;102727.94;5115707;28;20028;-83
2022/11/11 01:10:38;;;;;;;18.95;9.77;;;;;;;8.83;100.00;102736.59;5115897;28;20092;-83
2022/11/11 01:13:11;;;;;;;16.75;9.20;;;;;;;8.85;100.00;102741.84;5116260;28;20039;-83
2022/11/11 01:15:36;;;;;;;15.23;9.07;;;;;;;8.86;100.00;102746.25;5132818;27;20043;-83
2022/11/11 01:18:03;;;;;;;18.10;9.65;;;;;;;8.89;100.00;102735.13;5116125;28;20088;-83
2022/11/11 01:20:29;;;;;;;23.95;10.75;;;;;;;8.84;100.00;102735.56;5132890;27;20514;-83
2022/11/11 01:22:54;;;;;;;18.37;10.10;;;;;;;8.84;100.00;102735.56;5099613;28;20052;-83
2022/11/11 01:25:20;;;;;;;18.80;9.93;;;;;;;8.88;100.00;102742.38;5098707;28;20062;-83
2022/11/11 01:27:46;;;;;;;20.95;10.13;;;;;;;8.89;100.00;102744.09;5117176;28;20077;-83
2022/11/11 01:30:12;;;;;;;19.00;10.30;;;;;;;8.89;100.00;102732.41;5098634;28;20062;-84
2022/11/11 01:32:41;;;;;;;19.08;10.10;;;;;;;8.86;100.00;102735.41;5098677;28;20031;-83
2022/11/11 01:35:07;;;;;;;20.00;10.18;;;;;;;8.88;100.00;102728.00;5114881;28;20084;-83
2022/11/11 01:37:33;;;;;;;18.50;10.80;;;;;;;8.88;100.00;102736.97;5098537;28;20043;-83
2022/11/11 01:39:59;;;;;;;19.90;11.10;;;;;;;8.89;100.00;102735.13;5131947;27;20089;-83
2022/11/11 01:42:24;;;;;;;19.70;9.30;;;;;;;8.93;100.00;102733.78;5098541;28;20048;-83
2022/11/11 01:44:50;;;;;;;21.55;9.68;;;;;;;8.95;100.00;102731.78;5115628;28;20476;-83
2022/11/11 01:47:17;;;;;;;21.63;9.63;;;;;;;8.91;100.00;102727.69;5132425;27;20118;-83
2022/11/11 01:49:49;;;;;;;18.38;9.35;;;;;;;8.90;100.00;102721.44;5115221;28;20036;-83
2022/11/11 01:52:17;;;;;;;20.02;10.27;;;;;;;8.93;100.00;102715.69;5115129;28;20050;-83
2022/11/11 01:54:49;;;;;;;18.35;9.82;;;;;;;8.89;100.00;102717.00;5115183;28;20039;-84
2022/11/11 01:57:24;;;;;;;18.63;10.85;;;;;;;8.86;100.00;102713.75;5115411;28;20043;-83
2022/11/11 01:59:59;;;;;;;16.27;9.50;;;;;;;8.88;100.00;102718.00;5115565;28;20031;-83
2022/11/11 02:03:05;;;;;;;20.58;10.55;;;;;;;8.92;100.00;102715.84;5132175;27;20043;-83
2022/11/11 02:05:44;;;;;;;20.45;10.80;;;;;;;8.85;100.00;102714.78;5056529;28;20040;-82
2022/11/11 02:08:30;;;;;;;19.88;10.55;;;;;;;8.86;100.00;102725.44;5073174;28;20107;-83
2022/11/11 02:11:04;;;;;;;19.88;9.70;;;;;;;8.88;100.00;102718.00;5114030;27;20044;-84
2022/11/11 02:16:15;;;;;;;17.80;10.23;;;;;;;8.87;100.00;102712.75;5115688;28;20066;-83
2022/11/11 02:18:42;;;;;;;20.43;9.57;;;;;;;8.90;100.00;102720.56;5115990;28;20467;-83
2022/11/11 02:21:12;;;;;;;18.38;10.27;;;;;;;8.84;100.00;102708.50;5131741;27;20357;-83
2022/11/11 02:23:55;;;;;;;18.42;9.80;;;;;;;8.81;100.00;102711.53;5114864;28;20039;-85
2022/11/11 02:26:21;;;;;;;19.25;9.63;;;;;;;8.82;100.00;102698.88;5114941;28;20032;-83
2022/11/11 02:28:48;;;;;;;18.47;9.90;;;;;;;8.82;100.00;102705.13;5131616;27;20035;-83
2022/11/11 02:31:14;;;;;;;21.38;10.48;;;;;;;8.80;100.00;102690.91;5114633;28;20107;-84
2022/11/11 02:33:39;;;;;;;18.65;9.68;;;;;;;8.88;100.00;102688.22;5080245;28;20069;-83
2022/11/11 02:36:09;;;;;;;17.13;9.98;;;;;;;8.77;100.00;102694.78;5114593;28;20084;-83
2022/11/11 02:38:35;;;;;;;17.73;9.88;;;;;;;8.75;100.00;102679.69;5114689;28;20387;-83
2022/11/11 02:43:44;;;;;;;19.15;9.00;;;;;;;8.71;100.00;102695.41;5100086;28;20051;-83
2022/11/11 02:46:10;;;;;;;16.90;9.03;;;;;;;8.69;100.00;102697.41;5113621;28;20040;-83
2022/11/11 02:48:35;;;;;;;18.83;9.03;;;;;;;8.69;100.00;102691.16;5131279;27;20032;-83
2022/11/11 02:51:03;;;;;;;18.83;8.73;;;;;;;8.72;100.00;102694.38;5131467;27;20459;-83
2022/11/11 02:53:28;;;;;;;18.50;9.70;;;;;;;8.64;100.00;102691.63;5113983;28;20032;-83
2022/11/11 02:55:54;;;;;;;16.47;9.93;;;;;;;8.63;100.00;102689.09;5114024;28;20043;-83
2022/11/11 02:58:19;;;;;;;19.73;8.70;;;;;;;8.62;100.00;102676.53;5115183;28;20832;-84
2022/11/11 03:00:44;;;;;;;16.80;9.13;;;;;;;8.63;100.00;102673.69;5096962;28;20035;-83
2022/11/11 03:03:10;;;;;;;16.10;8.77;;;;;;;8.59;100.00;102664.19;5097101;28;20031;-83
2022/11/11 03:05:36;;;;;;;18.30;9.23;;;;;;;8.55;100.00;102674.47;5130920;27;20039;-83
2022/11/11 03:08:02;;;;;;;18.27;9.32;;;;;;;8.53;100.00;102678.34;5131136;27;20054;-83
2022/11/11 03:10:28;;;;;;;18.50;9.32;;;;;;;8.47;100.00;102673.56;5113664;28;20399;-83
2022/11/11 03:12:55;;;;;;;20.52;9.45;;;;;;;8.46;100.00;102688.09;5114944;28;20042;-83
2022/11/11 03:15:20;;;;;;;13.47;8.00;;;;;;;8.56;100.00;102667.19;5113558;28;20085;-83
2022/11/11 03:17:46;;;;;;;15.55;8.73;;;;;;;8.49;100.00;102669.69;5114304;28;20035;-83
2022/11/11 03:23:06;;;;;;;16.83;8.98;;;;;;;8.46;100.00;102677.25;5114843;28;20090;-83
2022/11/11 03:25:39;;;;;;;20.75;10.20;;;;;;;8.47;100.00;102690.63;5130480;27;20096;-83
2022/11/11 03:28:07;;;;;;;16.00;8.27;;;;;;;8.49;100.00;102690.47;5113961;28;20032;-83
2022/11/11 03:30:33;;;;;;;13.77;8.20;;;;;;;8.49;100.00;102698.59;5113899;28;20042;-83
2022/11/11 03:32:59;;;;;;;16.02;8.05;;;;;;;8.47;100.00;102695.19;5130398;27;20454;-83
2022/11/11 03:35:25;;;;;;;16.65;8.77;;;;;;;8.47;100.00;102703.31;5114513;28;20126;-83
2022/11/11 03:40:34;;;;;;;17.45;8.10;;;;;;;8.47;100.00;102704.16;5114350;28;20134;-83
2022/11/11 03:43:00;;;;;;;14.03;8.43;;;;;;;8.47;100.00;102692.50;5096320;28;20070;-83
2022/11/11 03:45:25;;;;;;;16.27;8.37;;;;;;;8.44;100.00;102690.94;5113148;28;20048;-83
2022/11/11 03:47:58;;;;;;;14.37;8.63;;;;;;;8.45;100.00;102687.25;5112757;28;20054;-83
2022/11/11 03:50:23;;;;;;;14.50;7.82;;;;;;;8.43;100.00;102686.53;5097455;28;20042;-82
2022/11/11 03:52:49;;;;;;;16.00;8.60;;;;;;;8.40;100.00;102678.69;5113323;28;20382;-83
2022/11/11 03:55:14;;;;;;;18.52;8.15;;;;;;;8.39;100.00;102685.97;5112670;28;20126;-83
2022/11/11 03:57:41;;;;;;;24.23;8.60;;;;;;;8.37;100.00;102679.88;5112471;28;20038;-83
2022/11/11 04:00:08;;;;;;;17.58;8.93;;;;;;;8.38;100.00;102686.13;5112603;28;20031;-83
2022/11/11 04:10:48;;;;;;;22.02;8.57;;;;;;;8.29;100.00;102706.84;5106359;28;20043;-83
2022/11/11 04:16:06;;;;;;;18.42;9.18;;;;;;;8.28;100.00;102705.13;5114681;28;20438;-84
2022/11/11 04:24:00;;;;;;;16.23;8.55;;;;;;;8.25;100.00;102716.25;5127578;28;20494;-83
2022/11/11 04:26:26;;;;;;;16.93;8.93;;;;;;;8.21;100.00;102704.91;5095674;28;20055;-83
2022/11/11 04:31:35;;;;;;;21.13;9.00;;;;;;;8.18;100.00;102707.94;5113547;28;20042;-83
2022/11/11 04:34:01;;;;;;;17.23;9.60;;;;;;;8.16;100.00;102703.69;5112965;28;20036;-83
2022/11/11 04:36:29;;;;;;;17.17;9.17;;;;;;;8.16;100.00;102707.22;5095254;28;20479;-83
2022/11/11 04:41:38;;;;;;;18.25;9.05;;;;;;;8.17;100.00;102711.63;5112644;28;20093;-84
2022/11/11 04:46:48;;;;;;;17.13;9.38;;;;;;;8.10;100.00;102707.00;5127593;28;20456;-83
2022/11/11 04:49:16;;;;;;;16.43;8.97;;;;;;;8.07;100.00;102710.84;5112392;28;20040;-83
2022/11/11 04:54:25;;;;;;;20.10;9.43;;;;;;;8.04;100.00;102700.34;5127330;28;20067;-83
2022/11/11 04:56:52;;;;;;;20.93;9.33;;;;;;;8.00;100.00;102702.53;5112938;28;20471;-83
2022/11/11 04:59:19;;;;;;;19.98;8.63;;;;;;;7.99;100.00;102703.50;5095855;28;20028;-83
2022/11/11 05:04:29;;;;;;;15.20;8.13;;;;;;;7.95;100.00;102703.97;5114198;28;20066;-83
2022/11/11 05:09:38;;;;;;;17.70;8.25;;;;;;;7.98;100.00;102706.38;5112903;28;20051;-83
2022/11/11 05:12:04;;;;;;;16.27;8.53;;;;;;;7.94;100.00;102703.09;5115998;28;20036;-83
2022/11/11 05:22:42;;;;;;;18.48;9.05;;;;;;;7.84;100.00;102700.47;5117509;28;20105;-83
2022/11/11 05:25:25;;;;;;;16.75;8.93;;;;;;;7.81;100.00;102703.50;5132848;27;20376;-84
2022/11/11 05:27:56;;;;;;;17.93;8.57;;;;;;;7.80;100.00;102709.06;5115772;28;20081;-83
2022/11/11 05:30:22;;;;;;;14.50;7.97;;;;;;;7.75;100.00;102708.63;5133107;27;20092;-83
2022/11/11 05:32:48;;;;;;;17.60;8.93;;;;;;;7.71;100.00;102706.25;5116416;28;20062;-83
2022/11/11 05:35:14;;;;;;;15.05;8.00;;;;;;;7.69;100.00;102710.09;5116148;28;20047;-83
2022/11/11 05:37:40;;;;;;;16.52;8.07;;;;;;;7.68;100.00;102713.81;5132452;27;20032;-83
2022/11/11 05:40:07;;;;;;;14.63;7.93;;;;;;;7.66;100.00;102711.25;5111005;28;20088;-82
2022/11/11 05:42:35;;;;;;;15.40;8.63;;;;;;;7.65;100.00;102714.13;5131734;27;20098;-85
2022/11/11 05:45:01;;;;;;;14.35;8.10;;;;;;;7.63;100.00;102718.81;5132557;27;20047;-86
2022/11/11 05:47:29;;;;;;;19.70;9.07;;;;;;;7.61;100.00;102710.84;5132530;27;20126;-85
2022/11/11 05:49:54;;;;;;;15.45;7.95;;;;;;;7.59;100.00;102699.34;5115717;28;20376;-85
2022/11/11 05:52:19;;;;;;;19.60;9.03;;;;;;;7.51;100.00;102701.94;5115829;28;20046;-83
2022/11/11 05:54:45;;;;;;;18.33;9.67;;;;;;;7.44;100.00;102709.81;5115732;28;20500;-83
2022/11/11 05:57:11;;;;;;;17.77;8.68;;;;;;;7.40;100.00;102696.72;5116422;28;20444;-83
2022/11/11 05:59:36;;;;;;;20.20;9.70;;;;;;;7.36;100.00;102699.72;5115981;28;20476;-83
2022/11/11 06:02:02;;;;;;;17.87;9.13;;;;;;;7.32;100.00;102705.56;5115245;28;20088;-83
2022/11/11 06:04:30;;;;;;;18.80;9.38;;;;;;;7.30;100.00;102718.38;5114663;28;20035;-83
2022/11/11 06:06:56;;;;;;;17.45;8.80;;;;;;;7.23;100.00;102712.72;5114948;28;20036;-83
2022/11/11 06:09:23;;;;;;;25.57;10.57;;;;;;;7.24;100.00;102721.69;5131732;27;20043;-83
2022/11/11 06:11:49;;;;;;;17.30;9.52;;;;;;;7.26;100.00;102727.78;5131680;27;20487;-83
2022/11/11 06:14:14;;;;;;;17.47;10.03;;;;;;;7.24;100.00;102719.81;5114758;28;20038;-84
2022/11/11 06:16:40;;;;;;;16.47;9.13;;;;;;;7.18;100.00;102723.13;5097823;28;20123;-87
2022/11/11 06:19:05;;;;;;;17.60;9.00;;;;;;;7.15;100.00;102729.66;5131435;27;20391;-86
2022/11/11 06:21:55;;;;;;;14.80;9.18;;;;;;;7.12;100.00;102727.25;5115602;28;20034;-86
2022/11/11 06:24:18;;;;;;;20.42;9.77;;;;;;;7.10;100.00;102729.25;5115647;28;20435;-85
2022/11/11 06:26:44;;;;;;;18.20;9.13;;;;;;;7.07;100.00;102729.56;5132018;27;20047;-85
2022/11/11 06:29:09;;;;;;;16.25;9.32;;;;;;;7.08;100.00;102735.78;5114570;28;20440;-84
2022/11/11 06:31:34;;;;;;;18.85;10.13;;;;;;;7.01;100.00;102733.69;5114117;28;20384;-85
2022/11/11 06:34:00;;;;;;;19.57;9.77;;;;;;;6.97;100.00;102743.06;5114876;28;20044;-85
2022/11/11 06:36:25;;;;;;;17.93;10.30;;;;;;;6.99;100.00;102751.00;5114430;28;20471;-86
2022/11/11 06:38:51;;;;;;;21.20;9.37;;;;;;;7.02;100.00;102748.00;5080560;28;20040;-86
2022/11/11 06:41:16;;;;;;;16.55;10.18;;;;;;;7.06;100.00;102748.56;5113112;28;20047;-83
2022/11/11 06:43:42;;;;;;;16.65;9.50;;;;;;;7.06;100.00;102743.16;5097502;28;20419;-85
2022/11/11 06:46:19;;;;;;;21.07;9.10;;;;;;;6.92;100.00;102747.19;5114410;28;20089;-86
2022/11/11 06:48:45;;;;;;;21.17;9.85;;;;;;;6.75;100.00;102746.91;5131473;27;20471;-87
2022/11/11 06:51:12;;;;;;;17.58;9.70;;;;;;;6.67;100.00;102758.44;5097038;28;20054;-84
2022/11/11 06:53:37;;;;;;;17.73;9.83;;;;;;;6.62;100.00;102763.38;5115574;28;20118;-84
2022/11/11 06:56:03;;;;;;;24.02;9.98;;;;;;;6.53;100.00;102766.94;5113588;28;20078;-84
2022/11/11 06:58:31;;;;;;;17.80;7.97;;;;;;;6.51;100.00;102758.16;5096763;28;20071;-85
2022/11/11 07:00:56;;;;;;;19.65;9.60;;;;;;;6.44;100.00;102757.84;5114039;28;20043;-85
2022/11/11 07:03:22;;;;;;;23.90;9.50;;;;;;;6.45;100.00;102758.69;5113835;28;20049;-85
2022/11/11 07:05:47;;;;;;;18.53;10.20;;;;;;;6.43;100.00;102756.16;5130837;27;20089;-85
2022/11/11 07:08:17;;;;;;;22.60;10.10;;;;;;;6.44;100.00;102757.03;5114080;28;20438;-85
2022/11/11 07:10:45;;;;;;;20.60;9.65;;;;;;;6.37;100.00;102754.03;5113879;28;20059;-85
2022/11/11 07:13:11;;;;;;;17.52;9.02;;;;;;;6.38;100.00;102755.72;5113466;28;20041;-85
2022/11/11 07:15:37;;;;;;;16.88;9.25;;;;;;;6.39;100.00;102765.53;5130698;27;20400;-85
2022/11/11 07:18:03;;;;;;;17.00;8.13;;;;;;;6.38;100.00;102758.44;5114242;28;20107;-85
2022/11/11 07:20:29;;;;;;;19.85;8.82;;;;;;;6.36;100.00;102764.94;5112735;28;20091;-84
2022/11/11 07:22:54;;;;;;;16.42;9.82;;;;;;;6.38;100.00;102768.34;5096279;28;20043;-85
2022/11/11 07:25:20;;;;;;;15.40;8.23;;;;;;;6.41;100.00;102781.56;5113684;28;20040;-84
2022/11/11 07:27:45;;;;;;;19.30;8.85;;;;;;;6.41;100.00;102787.81;5130173;27;20429;-85
2022/11/11 07:30:11;;;;;;;16.70;7.13;;;;;;;6.40;100.00;102783.41;5113710;28;20054;-85
2022/11/11 07:32:44;;;;;;;16.60;8.17;;;;;;;6.49;100.00;102781.69;5129713;27;20126;-85
2022/11/11 07:35:10;;;;;;;18.58;8.77;;;;;;;6.55;100.00;102777.59;5114315;28;20314;-85
2022/11/11 07:37:36;;;;;;;22.30;9.00;;;;;;;6.52;100.00;102772.47;5112724;28;20043;-85
2022/11/11 07:40:01;;;;;;;18.27;8.68;;;;;;;6.55;100.00;102788.38;5112881;28;20039;-85
2022/11/11 07:42:27;;;;;;;21.60;8.98;;;;;;;6.57;100.00;102789.06;5095994;28;20047;-85
2022/11/11 07:44:52;;;;;;;18.43;8.83;;;;;;;6.58;100.00;102794.34;5095894;28;20050;-84
2022/11/11 07:47:19;;;;;;;15.60;8.50;;;;;;;6.60;100.00;102795.06;5112846;28;20437;-84
2022/11/11 07:49:44;;;;;;;18.45;8.18;;;;;;;6.63;100.00;102793.94;5112554;28;20040;-84
2022/11/11 07:52:10;;;;;;;18.40;8.50;;;;;;;6.65;100.00;102805.41;5112802;28;20069;-84
2022/11/11 07:54:35;;;;;;;17.53;8.57;;;;;;;6.71;100.00;102798.63;5112689;28;20487;-82
2022/11/11 07:57:00;;;;;;;21.90;9.20;;;;;;;6.73;100.00;102802.88;5130158;27;20035;-81
2022/11/11 07:59:28;;;;;;;18.30;9.77;;;;;;;6.77;100.00;102815.06;5130441;27;20116;-84
2022/11/11 08:01:53;;;;;;;16.80;9.68;;;;;;;6.81;100.00;102823.75;5129651;27;20047;-85
2022/11/11 08:04:19;;;;;;;20.67;9.33;;;;;;;6.84;100.00;102812.66;5095744;28;20039;-82
2022/11/11 08:06:44;;;;;;;17.40;8.83;;;;;;;6.85;100.00;102820.63;5112831;28;20104;-82
2022/11/11 08:09:10;;;;;;;18.93;8.33;;;;;;;6.87;100.00;102827.72;5095705;28;20036;-87
2022/11/11 08:14:19;;;;;;;16.73;9.40;;;;;;;6.90;100.00;102839.06;5114409;28;20034;-83
2022/11/11 08:16:44;;;;;;;18.57;8.70;;;;;;;6.92;100.00;102839.78;5096080;28;20043;-82
2022/11/11 08:19:10;;;;;;;17.77;8.98;;;;;;;6.94;100.00;102839.63;5112621;28;20066;-82
2022/11/11 08:21:36;;;;;;;17.20;9.17;;;;;;;6.96;100.00;102845.75;5112622;28;20044;-82
2022/11/11 08:24:02;;;;;;;16.58;9.18;;;;;;;6.99;100.00;102840.91;5112531;28;20032;-82
2022/11/11 08:26:28;;;;;;;19.63;9.20;;;;;;;7.03;100.00;102844.19;5112573;28;20046;-82
2022/11/11 08:28:53;;;;;;;15.80;8.98;;;;;;;7.06;100.00;102837.63;5129887;28;20047;-82
2022/11/11 08:31:18;;;;;;;17.10;8.60;;;;;;;7.08;100.00;102839.19;5095291;28;20100;-83
2022/11/11 08:33:44;;;;;;;16.00;8.37;;;;;;;7.11;100.00;102848.88;5112464;28;20426;-82
2022/11/11 08:36:10;;;;;;;14.67;7.93;;;;;;;7.17;100.00;102854.53;5113204;28;20074;-82
2022/11/11 08:38:36;;;;;;;15.75;8.13;;;;;;;7.18;100.00;102855.41;5129619;28;20463;-82
2022/11/11 08:41:03;;;;;;;14.77;8.50;;;;;;;7.21;100.00;102860.50;5112087;28;20570;-83
2022/11/11 08:43:31;;;;;;;14.43;7.00;;;;;;;7.28;100.00;102868.88;5129615;28;20039;-83
2022/11/11 08:45:57;;;;;;;15.80;8.10;;;;;;;7.33;100.00;102861.22;5117661;28;20043;-82
2022/11/11 08:48:23;;;;;;;14.02;8.20;;;;;;;7.36;100.00;102863.63;5099215;28;20517;-82
2022/11/11 08:50:51;;;;;;;15.07;7.93;;;;;;;7.42;100.00;102873.00;5099212;28;20035;-82
2022/11/11 08:53:17;;;;;;;20.15;7.80;;;;;;;7.50;100.00;102870.41;5116128;28;20032;-82
2022/11/11 08:55:43;;;;;;;17.38;7.82;;;;;;;7.49;100.00;102871.41;5116147;28;20039;-82
2022/11/11 08:58:09;;;;;;;14.50;8.40;;;;;;;7.55;100.00;102865.44;5132988;27;20473;-82
2022/11/11 09:00:35;;;;;;;15.32;7.20;;;;;;;7.59;100.00;102871.38;5115840;28;20075;-83
2022/11/11 09:03:03;;;;;;;11.57;6.53;;;;;;;7.62;100.00;102871.09;5133045;27;20063;-82
2022/11/11 09:05:29;;;;;;;12.20;6.45;;;;;;;7.68;100.00;102868.66;5116010;28;20262;-83
2022/11/11 09:07:55;;;;;;;11.90;6.97;;;;;;;7.71;100.00;102870.22;5117342;28;20491;-82
2022/11/11 09:10:20;;;;;;;12.73;7.15;;;;;;;7.76;100.00;102867.06;5115648;28;20024;-82
2022/11/11 09:12:46;;;;;;;10.63;6.25;;;;;;;7.80;100.00;102872.03;5133239;27;20069;-82
2022/11/11 09:15:11;;;;;;;14.53;6.83;;;;;;;7.86;100.00;102871.44;5116611;27;20031;-83
2022/11/11 09:17:37;;;;;;;11.47;6.83;;;;;;;7.94;100.00;102870.69;5133005;27;20055;-83
2022/11/11 09:20:02;;;;;;;10.17;5.83;;;;;;;8.01;100.00;102876.38;5115314;28;20092;-83
2022/11/11 09:22:28;;;;;;;11.40;6.30;;;;;;;8.05;100.00;102880.50;5098633;28;20073;-84
2022/11/11 09:24:54;;;;;;;8.73;6.07;;;;;;;8.07;100.00;102876.66;5116278;28;20141;-82
2022/11/11 09:27:20;;;;;;;9.60;6.20;;;;;;;8.11;100.00;102882.59;5115582;28;20110;-82
2022/11/11 09:29:45;;;;;;;10.80;5.80;;;;;;;8.17;100.00;102879.28;5115230;28;20043;-83
2022/11/11 09:32:11;;;;;;;11.17;6.73;;;;;;;8.22;100.00;102874.28;5097636;28;20035;-83
2022/11/11 09:34:37;;;;;;;8.33;5.87;;;;;;;8.29;100.00;102879.09;5114979;28;20471;-81
2022/11/11 09:37:02;;;;;;;10.23;6.07;;;;;;;8.34;100.00;102883.06;5097747;28;20044;-82
2022/11/11 09:39:28;;;;;;;12.20;6.27;;;;;;;8.40;100.00;102879.75;5114923;28;20036;-82
2022/11/11 09:42:03;;;;;;;10.48;6.25;;;;;;;8.50;100.00;102873.44;5115072;28;20055;-83
2022/11/11 09:44:58;;;;;;;9.40;5.57;;;;;;;8.63;100.00;102876.63;5114999;28;20438;-83
2022/11/11 09:47:34;;;;;;;12.40;5.97;;;;;;;8.65;99.65;102880.06;5115441;28;20499;-85
2022/11/11 09:50:23;;;;;;;9.27;5.88;;;;;;;8.74;99.01;102889.94;5115247;28;20096;-82
2022/11/11 09:52:59;;;;;;;27.17;8.15;;;;;;;8.74;98.46;102884.53;5132712;27;20061;-83
2022/11/11 09:55:43;;;;;;;8.90;5.55;;;;;;;8.85;98.40;102888.88;5115293;28;20040;-82
2022/11/11 09:58:22;;;;;;;9.07;5.10;;;;;;;8.97;98.52;102894.91;5116503;28;20036;-83
2022/11/11 10:01:01;;;;;;;10.35;5.95;;;;;;;9.05;97.38;102888.72;5116157;28;20036;-83
2022/11/11 10:03:30;;;;;;;10.38;5.28;;;;;;;9.13;96.07;102886.94;5115113;28;20039;-84
2022/11/11 10:06:20;;;;;;;10.13;5.47;;;;;;;9.19;96.53;102901.69;5115666;28;20039;-83
2022/11/11 10:09:03;;;;;;;10.00;5.90;;;;;;;9.26;96.13;102894.66;5114359;28;20043;-84
2022/11/11 10:11:28;;;;;;;11.43;5.77;;;;;;;9.33;95.72;102886.78;5114997;28;20036;-83
2022/11/11 10:13:57;;;;;;;9.77;5.30;;;;;;;9.47;95.52;102886.19;5115908;28;20115;-82
2022/11/11 10:16:32;;;;;;;10.25;5.63;;;;;;;9.63;94.42;102896.28;5097859;28;20277;-85
2022/11/11 10:19:21;;;;;;;8.52;4.90;;;;;;;9.78;94.34;102901.13;5115607;28;20062;-84
2022/11/11 10:21:52;;;;;;;10.00;5.20;;;;;;;9.82;92.58;102884.38;5115642;28;20044;-85
2022/11/11 10:24:37;;;;;;;8.32;5.13;;;;;;;9.87;92.34;102888.47;5131716;27;20109;-84
2022/11/11 10:27:17;;;;;;;9.40;5.32;;;;;;;9.96;92.34;102874.78;5131536;27;20035;-84
2022/11/11 10:29:43;;;;;;;10.73;4.90;;;;;;;10.09;90.78;102890.63;5115750;28;20055;-86
2022/11/11 10:32:13;;;;;;;8.82;5.45;;;;;;;10.22;90.65;102879.31;5115015;28;20408;-84
2022/11/11 10:34:39;;;;;;;9.77;4.95;;;;;;;10.32;89.21;102890.06;5114258;28;20046;-84
2022/11/11 10:37:17;;;;;;;8.20;4.72;;;;;;;10.50;89.24;102890.81;5096889;28;20055;-84
2022/11/11 10:40:09;;;;;;;8.48;4.85;;;;;;;10.61;88.51;102892.38;5131557;27;20111;-84
2022/11/11 10:42:34;;;;;;;5.90;4.20;;;;;;;10.74;87.10;102882.91;5114196;28;20047;-84
2022/11/11 10:45:01;;;;;;;7.45;4.55;;;;;;;10.86;86.53;102887.00;5115122;28;20375;-84
2022/11/11 10:47:42;;;;;;;6.13;4.30;;;;;;;11.08;86.43;102888.22;5113956;28;20039;-83
2022/11/11 10:50:17;;;;;;;5.72;3.75;;;;;;;11.43;84.52;102888.03;5114168;28;20113;-84
2022/11/11 10:53:02;;;;;;;10.63;3.95;;;;;;;11.49;82.61;102887.34;5114860;28;20418;-82
2022/11/11 10:55:27;;;;;;;5.82;4.25;;;;;;;11.58;82.30;102889.88;5114108;28;20144;-84
2022/11/11 10:58:19;;;;;;;6.03;4.00;;;;;;;11.84;81.99;102888.81;5114158;28;20047;-83
2022/11/11 11:00:47;;;;;;;10.25;4.22;;;;;;;12.54;78.90;102883.63;5114092;28;20058;-83
2022/11/11 11:03:29;;;;;;;5.82;3.47;;;;;;;13.56;74.51;102883.38;5113531;28;20038;-83
2022/11/11 11:06:03;;;;;;;5.57;4.17;;;;;;;14.19;70.50;102883.88;5114936;28;20122;-84
2022/11/11 11:08:33;;;;;;;7.18;3.30;;;;;;;14.87;68.11;102878.16;5129997;27;20085;-84
2022/11/11 11:11:15;;;;;;;5.30;2.90;;;;;;;15.97;67.34;102877.78;5113509;28;20042;-84
2022/11/11 11:13:44;;;;;;;6.85;2.60;;;;;;;16.65;62.39;102872.38;5113477;28;20050;-83
2022/11/11 11:16:16;;;;;;;5.53;2.55;;;;;;;17.38;60.29;102864.44;5130555;27;20041;-83
2022/11/11 11:18:43;;;;;;;4.53;2.80;;;;;;;17.83;58.06;102859.09;5113182;28;20031;-84
2022/11/11 11:21:09;;;;;;;6.32;2.60;;;;;;;18.06;55.51;102855.91;5114146;28;20043;-84
2022/11/11 11:23:43;;;;;;;3.95;2.20;;;;;;;18.00;56.14;102857.59;5113135;28;20039;-84
2022/11/11 11:26:11;;;;;;;4.55;2.42;;;;;;;17.36;55.16;102870.16;5130173;27;20032;-83
2022/11/11 11:28:57;;;;;;;6.43;2.70;;;;;;;16.73;58.68;102871.34;5114214;28;20070;-84
2022/11/11 11:31:36;;;;;;;2.67;1.95;;;;;;;16.21;60.81;102867.38;5113028;28;20047;-84
2022/11/11 11:34:09;;;;;;;4.03;2.60;;;;;;;16.31;60.16;102865.97;5113781;28;20105;-84
2022/11/11 11:36:34;;;;;;;3.72;2.00;;;;;;;16.65;58.01;102866.03;5113711;28;20044;-84
2022/11/11 11:39:00;;;;;;;5.50;2.10;;;;;;;16.63;57.93;102858.03;5113167;28;20047;-84
2022/11/11 11:41:50;;;;;;;2.60;2.00;;;;;;;16.69;59.67;102864.59;5113047;28;20446;-84
2022/11/11 11:44:27;;;;;;;5.60;1.60;;;;;;;17.13;57.55;102859.63;5114931;28;20039;-84
2022/11/11 11:47:28;;;;;;;3.77;2.00;;;;;;;17.03;57.98;102862.78;5112649;28;20369;-84
2022/11/11 11:50:17;;;;;;;3.42;1.80;;;;;;;16.97;57.12;102852.63;5089689;28;20050;-84
2022/11/11 11:52:49;;;;;;;3.65;1.70;;;;;;;17.24;55.86;102856.22;5113129;28;20046;-84
2022/11/11 11:55:36;;;;;;;4.43;1.98;;;;;;;17.88;57.16;102846.41;5112668;28;20491;-84
2022/11/11 11:58:18;;;;;;;4.15;1.77;;;;;;;18.84;54.40;102854.00;5114305;28;20043;-84
2022/11/11 12:01:01;;;;;;;2.60;1.20;;;;;;;19.13;51.94;102854.44;5113245;28;20118;-84
2022/11/11 12:03:35;;;;;;;3.97;1.30;;;;;;;19.40;49.35;102844.03;5112892;28;20039;-85
2022/11/11 12:06:08;;;;;;;2.45;1.40;;;;;;;20.08;48.96;102853.31;5113098;28;20544;-84
2022/11/11 12:09:14;;;;;;;2.00;1.45;;;;;;;20.89;49.22;102842.00;5112992;28;20147;-84
2022/11/11 12:11:58;;;;;;;2.10;1.23;;;;;;;21.35;45.35;102837.63;5129876;28;20114;-85
2022/11/11 12:14:44;;;;;;;2.07;1.40;;;;;;;21.84;43.91;102837.38;5114331;28;20062;-84
2022/11/11 12:17:18;;;;;;;4.03;1.60;;;;;;;22.73;41.20;102831.38;5112678;28;20050;-85
2022/11/11 12:19:46;;;;;;;2.40;1.40;;;;;;;22.46;39.68;102833.94;5116037;28;20035;-84
2022/11/11 12:22:28;;;;;;;3.58;1.60;;;;;;;21.97;43.55;102822.44;5116877;28;20135;-84
2022/11/11 12:25:11;;;;;;;1.90;1.20;;;;;;;21.99;42.61;102831.34;5118525;28;20043;-84
2022/11/11 12:27:55;;;;;;;1.50;1.00;;;;;;;21.36;42.49;102823.59;5116989;28;20043;-84
2022/11/11 12:30:29;;;;;;;2.58;1.40;;;;;;;20.74;43.84;102834.19;5117026;28;20473;-84
2022/11/11 12:33:06;;;;;;;1.98;1.40;;;;;;;20.49;44.98;102819.47;5116711;28;20039;-85
2022/11/11 12:35:57;;;;;;;2.95;1.25;;;;;;;20.50;45.93;102825.81;5116385;28;20039;-84
2022/11/11 12:38:46;;;;;;;1.80;1.20;;;;;;;20.55;46.19;102820.44;5133900;27;20036;-85
2022/11/11 12:41:46;;;;;;;1.90;1.20;;;;;;;20.27;45.16;102821.03;5130826;27;20035;-84